< Typhoon 197401 1974 Season Typhoon 197403 >
Typhoon 197402 (AMY)
General InformationTrack Information on Google Maps || Disaster Info.ResourceGoogle EarthGE AnimationAtom FeedGeoJSON
Detalied Best Track (Time Zone = UTC)
Year Month Day Hour Lat. Long. Pressure (hPa) Wind (kt) Class Image Chart
1974 3 12 18 8.0 146.5 1004 0 2 -- Chart
1974 3 13 00 8.0 146.0 1004 0 2 -- Chart
1974 3 13 06 8.0 145.5 1000 0 2 -- Chart
1974 3 13 12 8.1 144.9 1000 0 2 -- Chart
1974 3 13 18 8.2 144.3 1000 0 2 -- Chart
1974 3 14 00 8.2 143.7 1000 0 2 -- Chart
1974 3 14 06 8.4 143.2 1000 0 2 -- Chart
1974 3 14 12 8.4 142.5 1000 0 2 -- Chart
1974 3 14 18 8.5 141.9 1000 0 2 -- Chart
1974 3 15 00 8.7 141.3 1000 0 2 -- Chart
1974 3 15 06 8.9 140.2 1000 0 2 -- Chart
1974 3 15 12 9.1 139.1 1000 0 2 -- Chart
1974 3 15 18 9.5 138.4 998 0 2 -- Chart
1974 3 16 00 10.1 137.3 1000 0 2 -- Chart
1974 3 16 06 10.7 137.0 998 0 2 -- Chart
1974 3 16 12 11.4 136.4 998 0 2 -- Chart
1974 3 16 18 12.4 136.4 1000 0 2 -- Chart
1974 3 17 00 13.4 136.8 1000 0 2 -- Chart
1974 3 17 06 14.4 137.4 992 0 2 -- Chart
1974 3 17 12 15.3 138.4 994 0 9 -- Chart
1974 3 17 18 16.0 139.3 996 0 9 -- Chart
1974 3 18 00 17.1 140.5 996 0 9 -- Chart
1974 3 18 06 18.3 142.0 994 0 9 -- Chart
1974 3 18 12 19.0 143.6 994 0 9 -- Chart
1974 3 18 18 20.3 145.5 992 0 9 -- Chart
1974 3 19 00 22.0 148.1 992 0 9 -- Chart
1974 3 19 06 23.3 150.5 992 0 9 -- Chart
1974 3 19 12 24.5 153.2 992 0 9 -- Chart
1974 3 19 18 25.6 156.5 992 0 9 -- Chart
1974 3 20 00 26.7 159.4 992 0 6 -- Chart
1974 3 20 06 28.0 163.0 992 0 6 -- Chart
1974 3 20 12 29.1 167.0 992 0 6 -- Chart
1974 3 20 18 30.5 172.0 988 0 6 -- Chart
1974 3 21 00 31.0 177.0 988 0 6 -- Chart
Japan Meteorological Agency Best Track Data | Correction Date : 1993-09-03
< Typhoon 197401 1974 Season Typhoon 197403 >

Help